»·PEaware :: N5205X KSNA-KCRQ

N5205X :: KSNA-KCRQ

FLIGHT INFORMATION

Flight Status: Arrived
Operator: Privately registered:
United States
More flights under this callsign
Pilot: Martin B. (29991)
Aircraft: CIRRUS VISIONJET
(SF50)
More flights by this aircraft type
Origin: KSNA John Wayne-Orange Co
United States
Destination: KCRQ McClellan-Palomar
United States
More flights between these airports :: More routes between these airports
Route: +V25 PACIF V208 OCN
File this flight plan on PilotEdge
Remarks:
Altitude:
(Current/Filed)
7,000ft
Speed:
(Current/Filed)
220kts
Departed: 08-Nov-20 11:32 AM
Arrived: 08-Nov-20 12:08 PM
Distance/Time
Traveled:
0nm/0:36
Distance/Time
To Go:
Arrived

Flight Plot

Page will automatically refresh every two minutes.


Map Options




Map Legend


Flown Route
Filed Route
Departure Airport
Arrival Airport
Navaid (VOR, NDB)
Fix

Horizontal Profiles

Position Reports

Time Latitude Longitude Heading Altitude Ground
Speed
08-Nov-20 11:08 33.671614 -117.867752 207 60ft 0kts
08-Nov-20 11:09 33.671614 -117.867752 207 60ft 0kts
08-Nov-20 11:10 33.671614 -117.867752 207 60ft 0kts
08-Nov-20 11:11 33.671614 -117.867752 207 60ft 0kts
08-Nov-20 11:12 33.671614 -117.867752 207 60ft 0kts
08-Nov-20 11:13 33.671614 -117.867752 207 60ft 0kts
08-Nov-20 11:13 33.671614 -117.867752 207 60ft 0kts
08-Nov-20 11:15 33.671614 -117.867752 207 60ft 0kts
08-Nov-20 11:15 33.671614 -117.867752 207 60ft 0kts
08-Nov-20 11:17 33.671614 -117.867752 207 60ft 0kts
08-Nov-20 11:17 33.671614 -117.867752 207 60ft 0kts
08-Nov-20 11:18 33.671614 -117.867752 207 60ft 0kts
08-Nov-20 11:19 33.671614 -117.867752 207 60ft 0kts
08-Nov-20 11:20 33.671614 -117.867752 207 60ft 0kts
08-Nov-20 11:21 33.671614 -117.867752 207 60ft 0kts
08-Nov-20 11:22 33.671614 -117.867752 207 60ft 0kts
08-Nov-20 11:23 33.671614 -117.867752 207 60ft 0kts
08-Nov-20 11:24 33.671614 -117.867752 207 60ft 0kts
08-Nov-20 11:25 33.671614 -117.867752 207 60ft 0kts
08-Nov-20 11:26 33.672991 -117.867416 55 60ft 15kts
08-Nov-20 11:27 33.676519 -117.864932 27 60ft 14kts
08-Nov-20 11:28 33.680192 -117.862735 351 60ft 12kts
08-Nov-20 11:29 33.681131 -117.864154 297 60ft 0kts
08-Nov-20 11:30 33.681173 -117.864250 298 60ft 6kts
08-Nov-20 11:31 33.669221 -117.872560 211 536ft 108kts
08-Nov-20 11:32 33.630373 -117.877138 189 1840ft 164kts
08-Nov-20 11:33 33.584338 -117.879778 197 3356ft 164kts
08-Nov-20 11:34 33.541053 -117.882746 157 4847ft 176kts
08-Nov-20 11:35 33.492392 -117.854663 161 5009ft 206kts
08-Nov-20 11:36 33.439372 -117.827027 162 5011ft 206kts
08-Nov-20 11:37 33.389413 -117.801112 162 5012ft 191kts
08-Nov-20 11:38 33.341172 -117.776348 162 5011ft 187kts
08-Nov-20 11:39 33.299838 -117.755012 163 5006ft 155kts
08-Nov-20 11:40 33.276173 -117.710560 121 5010ft 161kts
08-Nov-20 11:41 33.257650 -117.663356 121 5013ft 151kts
08-Nov-20 11:42 33.233989 -117.618632 121 4972ft 176kts
08-Nov-20 11:43 33.206033 -117.572930 121 5019ft 171kts
08-Nov-20 11:44 33.178351 -117.526524 121 5019ft 172kts
08-Nov-20 11:45 33.150855 -117.479247 121 5020ft 173kts
08-Nov-20 11:46 33.123780 -117.431422 121 5020ft 174kts
08-Nov-20 11:47 33.097019 -117.383300 121 5020ft 174kts
08-Nov-20 11:48 33.081130 -117.329953 101 5019ft 171kts
08-Nov-20 11:49 33.069753 -117.273892 101 5019ft 177kts
08-Nov-20 11:50 33.061240 -117.215966 101 5019ft 177kts
08-Nov-20 11:51 33.052755 -117.157695 101 5020ft 178kts
08-Nov-20 11:52 33.044048 -117.099309 101 5021ft 179kts
08-Nov-20 11:53 33.035563 -117.040173 101 5021ft 181kts
08-Nov-20 11:54 33.018638 -116.988681 178 5024ft 158kts
08-Nov-20 11:55 33.028183 -117.003429 0 5020ft 167kts
08-Nov-20 11:56 33.074061 -116.994909 1 5019ft 167kts
08-Nov-20 11:57 33.120297 -116.986647 1 5017ft 168kts
08-Nov-20 11:58 33.162060 -116.978853 1 5018ft 146kts
08-Nov-20 11:59 33.178766 -116.999687 241 4889ft 119kts
08-Nov-20 12:00 33.168099 -117.037337 256 4080ft 121kts
08-Nov-20 12:01 33.161076 -117.076405 258 3015ft 120kts
08-Nov-20 12:02 33.154601 -117.116481 258 3017ft 124kts
08-Nov-20 12:03 33.148118 -117.156984 259 3017ft 124kts
08-Nov-20 12:04 33.141637 -117.197334 259 3017ft 124kts
08-Nov-20 12:05 33.135887 -117.230913 257 2256ft 74kts
08-Nov-20 12:06 33.132049 -117.257030 260 892ft 80kts
08-Nov-20 12:07 33.128478 -117.278178 260 319ft 15kts
08-Nov-20 12:08 33.128964 -117.280146 295 317ft 0kts
08-Nov-20 12:09 33.129031 -117.280315 291 317ft 0kts
08-Nov-20 12:10 33.129032 -117.280319 286 317ft 0kts
08-Nov-20 12:11 33.129048 -117.280367 287 317ft 0kts
08-Nov-20 12:12 33.128876 -117.282614 183 322ft 0kts
08-Nov-20 12:13 33.128876 -117.282614 183 322ft 0kts
08-Nov-20 12:14 33.129042 -117.282634 170 313ft 0kts
08-Nov-20 12:15 33.129042 -117.282634 170 313ft 0kts
08-Nov-20 12:16 33.129042 -117.282634 170 313ft 0kts
08-Nov-20 12:17 33.129042 -117.282634 170 313ft 0kts
08-Nov-20 12:18 33.129042 -117.282634 170 313ft 0kts
08-Nov-20 12:19 33.129042 -117.282634 170 313ft 0kts
08-Nov-20 12:20 33.671614 -117.867752 207 60ft 0kts
08-Nov-20 12:21 33.671614 -117.867752 207 60ft 0kts

Navigation Log

Ident Type
Flight plan parsing failed, navigation log unavailable